Time;durP1;ratioP1;P1;durP2;ratioP2;P2;SDS_P1;SDS_P2;PMS_P1;PMS_P2;Temp;Humidity;BMP_temperature;BMP_pressure;BME280_temperature;BME280_humidity;BME280_pressure;Samples;Min_cycle;Max_cycle;Signal;HPM_P1;HPM_P2
2023/03/03 00:00:40;;;;;;;69.60;33.97;;;;;;;;;;4955958;28;20795;-79
2023/03/03 00:03:08;;;;;;;60.63;31.25;;;;;;;;;;4952379;28;20491;-79
2023/03/03 00:05:34;;;;;;;70.10;32.90;;;;;;;;;;4940205;28;20193;-79
2023/03/03 00:08:01;;;;;;;64.43;31.67;;;;;;;;;;4965067;28;20494;-79
2023/03/03 00:10:27;;;;;;;73.47;32.30;;;;;;;;;;4950293;28;20476;-79
2023/03/03 00:12:54;;;;;;;68.47;32.60;;;;;;;;;;4964783;28;20464;-79
2023/03/03 00:15:21;;;;;;;71.23;33.70;;;;;;;;;;4942786;28;20461;-79
2023/03/03 00:17:47;;;;;;;69.37;32.70;;;;;;;;;;4944685;28;20449;-78
2023/03/03 00:20:23;;;;;;;68.93;30.80;;;;;;;;;;4959878;28;20465;-79
2023/03/03 00:22:50;;;;;;;69.20;26.77;;;;;;;;;;4960686;28;20453;-79
2023/03/03 00:25:19;;;;;;;57.37;31.27;;;;;;;;;;4956540;28;20457;-78
2023/03/03 00:27:45;;;;;;;71.77;32.63;;;;;;;;;;4951914;28;20522;-78
2023/03/03 00:30:26;;;;;;;72.93;32.77;;;;;;;;;;4956226;28;20848;-79
2023/03/03 00:32:54;;;;;;;78.00;33.93;;;;;;;;;;4964123;28;20433;-80
2023/03/03 00:35:34;;;;;;;60.07;30.17;;;;;;;;;;4957686;28;20465;-79
2023/03/03 00:38:00;;;;;;;59.20;27.13;;;;;;;;;;4947726;28;20537;-79
2023/03/03 00:40:31;;;;;;;57.93;26.20;;;;;;;;;;4963463;28;20860;-79
2023/03/03 00:42:59;;;;;;;66.67;32.97;;;;;;;;;;4963837;28;20487;-78
2023/03/03 00:45:25;;;;;;;63.23;32.30;;;;;;;;;;4959485;28;20457;-79
2023/03/03 00:47:52;;;;;;;63.33;30.53;;;;;;;;;;4945876;28;20465;-78
2023/03/03 00:50:29;;;;;;;56.63;26.17;;;;;;;;;;4953575;28;20458;-79
2023/03/03 00:53:06;;;;;;;62.67;29.17;;;;;;;;;;4954388;28;20449;-76
2023/03/03 00:55:33;;;;;;;54.67;29.57;;;;;;;;;;4963734;28;20458;-79
2023/03/03 00:57:59;;;;;;;66.80;30.97;;;;;;;;;;4936362;28;20673;-79
2023/03/03 01:00:25;;;;;;;55.43;29.90;;;;;;;;;;4940241;28;20851;-78
2023/03/03 01:02:51;;;;;;;59.70;28.67;;;;;;;;;;4950034;28;20485;-78
2023/03/03 01:05:18;;;;;;;67.50;31.30;;;;;;;;;;4941087;28;20552;-77
2023/03/03 01:07:50;;;;;;;65.60;30.37;;;;;;;;;;4969463;28;20461;-78
2023/03/03 01:10:16;;;;;;;52.30;26.57;;;;;;;;;;4948710;28;20449;-78
2023/03/03 01:12:42;;;;;;;60.60;30.27;;;;;;;;;;4967324;28;20464;-79
2023/03/03 01:15:09;;;;;;;61.53;31.10;;;;;;;;;;4963526;28;20467;-80
2023/03/03 01:17:35;;;;;;;74.40;29.02;;;;;;;;;;4960498;28;20475;-79
2023/03/03 01:20:02;;;;;;;72.40;27.98;;;;;;;;;;4952361;28;20198;-79
2023/03/03 01:22:28;;;;;;;68.23;32.27;;;;;;;;;;4967666;28;20281;-79
2023/03/03 01:24:57;;;;;;;58.08;31.35;;;;;;;;;;4961997;28;20457;-79
2023/03/03 01:27:23;;;;;;;62.15;30.30;;;;;;;;;;4943598;28;20236;-79
2023/03/03 01:29:49;;;;;;;70.17;31.03;;;;;;;;;;4962375;28;20206;-77
2023/03/03 01:32:15;;;;;;;73.37;34.00;;;;;;;;;;4964638;28;20931;-78
2023/03/03 01:34:41;;;;;;;66.07;31.63;;;;;;;;;;4951754;28;20468;-78
2023/03/03 01:37:08;;;;;;;67.90;29.00;;;;;;;;;;4949307;28;20187;-78
2023/03/03 01:39:34;;;;;;;87.35;34.97;;;;;;;;;;4959469;28;20521;-78
2023/03/03 01:42:00;;;;;;;79.03;37.67;;;;;;;;;;4962726;28;20197;-78
2023/03/03 01:44:26;;;;;;;74.77;31.13;;;;;;;;;;4946935;28;20463;-78
2023/03/03 01:47:01;;;;;;;79.77;34.70;;;;;;;;;;4943014;28;20426;-78
2023/03/03 01:49:33;;;;;;;77.93;33.00;;;;;;;;;;4964134;28;20523;-80
2023/03/03 01:52:01;;;;;;;98.85;36.22;;;;;;;;;;4954057;28;20437;-77
2023/03/03 01:54:29;;;;;;;68.87;34.87;;;;;;;;;;4950470;28;20251;-79
2023/03/03 01:56:59;;;;;;;81.13;35.17;;;;;;;;;;4972253;28;20465;-79
2023/03/03 01:59:28;;;;;;;79.25;34.78;;;;;;;;;;4963171;28;20457;-78
2023/03/03 02:01:54;;;;;;;70.40;29.37;;;;;;;;;;4955061;28;20284;-77
2023/03/03 02:04:20;;;;;;;67.60;29.17;;;;;;;;;;4965944;28;20456;-77
2023/03/03 02:07:16;;;;;;;78.87;35.30;;;;;;;;;;4969312;28;20503;-79
2023/03/03 02:09:45;;;;;;;84.73;37.20;;;;;;;;;;4942549;28;20464;-78
2023/03/03 02:12:13;;;;;;;69.73;28.30;;;;;;;;;;4970372;28;20544;-77
2023/03/03 02:14:39;;;;;;;73.20;32.70;;;;;;;;;;4945822;28;20467;-78
2023/03/03 02:17:05;;;;;;;94.97;37.70;;;;;;;;;;4969928;28;20446;-78
2023/03/03 02:20:01;;;;;;;94.53;38.80;;;;;;;;;;4959244;28;21005;-78
2023/03/03 02:22:43;;;;;;;89.70;39.00;;;;;;;;;;4941019;28;21056;-79
2023/03/03 02:25:13;;;;;;;98.50;37.07;;;;;;;;;;4951422;28;20972;-78
2023/03/03 02:27:39;;;;;;;89.23;33.00;;;;;;;;;;4969452;28;21031;-78
2023/03/03 02:30:10;;;;;;;67.10;30.77;;;;;;;;;;4968438;28;20444;-79
2023/03/03 02:32:36;;;;;;;84.87;37.23;;;;;;;;;;4966511;28;20476;-79
2023/03/03 02:35:22;;;;;;;85.70;33.33;;;;;;;;;;4971776;28;20491;-79
2023/03/03 02:37:49;;;;;;;77.83;31.30;;;;;;;;;;4961492;28;20524;-77
2023/03/03 02:40:15;;;;;;;80.37;33.33;;;;;;;;;;4964253;28;20458;-78
2023/03/03 02:42:41;;;;;;;78.60;28.90;;;;;;;;;;4968431;28;20896;-78
2023/03/03 02:45:08;;;;;;;81.83;32.80;;;;;;;;;;4961013;28;20471;-78
2023/03/03 02:47:33;;;;;;;83.47;36.67;;;;;;;;;;4968170;28;20474;-79
2023/03/03 02:49:59;;;;;;;73.53;33.60;;;;;;;;;;4947727;28;20472;-78
2023/03/03 02:52:25;;;;;;;90.83;36.33;;;;;;;;;;4970485;28;20956;-78
2023/03/03 02:54:51;;;;;;;83.77;36.07;;;;;;;;;;4966751;28;20449;-78
2023/03/03 02:57:17;;;;;;;62.40;25.45;;;;;;;;;;4952634;28;20560;-78
2023/03/03 02:59:43;;;;;;;80.20;34.10;;;;;;;;;;4946591;28;20643;-78
2023/03/03 03:02:10;;;;;;;94.47;36.93;;;;;;;;;;4953139;28;20468;-77
2023/03/03 03:04:36;;;;;;;75.40;30.37;;;;;;;;;;4949496;28;20473;-77
2023/03/03 03:07:02;;;;;;;77.40;32.93;;;;;;;;;;4969648;28;20979;-79
2023/03/03 03:09:28;;;;;;;90.40;34.47;;;;;;;;;;4949507;28;20459;-78
2023/03/03 03:11:54;;;;;;;83.07;34.20;;;;;;;;;;4954672;28;20730;-78
2023/03/03 03:14:20;;;;;;;79.30;30.83;;;;;;;;;;4964069;28;20488;-77
2023/03/03 03:16:46;;;;;;;63.93;28.73;;;;;;;;;;4969338;28;20440;-78
2023/03/03 03:19:12;;;;;;;70.80;27.67;;;;;;;;;;4968991;28;20436;-78
2023/03/03 03:21:38;;;;;;;77.53;29.00;;;;;;;;;;4971664;28;20594;-78
2023/03/03 03:24:04;;;;;;;78.53;34.20;;;;;;;;;;4963678;28;20460;-78
2023/03/03 03:26:30;;;;;;;77.37;33.50;;;;;;;;;;4970531;28;20440;-78
2023/03/03 03:28:56;;;;;;;79.53;34.10;;;;;;;;;;4966372;28;20463;-79
2023/03/03 03:31:22;;;;;;;72.20;32.60;;;;;;;;;;4973517;28;20463;-79
2023/03/03 03:33:48;;;;;;;89.60;35.13;;;;;;;;;;4981573;28;20477;-78
2023/03/03 03:36:14;;;;;;;81.93;34.33;;;;;;;;;;4973915;28;20431;-79
2023/03/03 03:38:40;;;;;;;82.50;31.03;;;;;;;;;;4966590;28;20798;-78
2023/03/03 03:41:06;;;;;;;82.43;33.33;;;;;;;;;;4971616;28;20421;-78
2023/03/03 03:43:33;;;;;;;75.53;30.00;;;;;;;;;;4966398;28;20447;-79
2023/03/03 03:45:59;;;;;;;88.73;33.40;;;;;;;;;;4967240;28;20449;-78
2023/03/03 03:48:25;;;;;;;72.47;30.80;;;;;;;;;;4967670;28;20467;-77
2023/03/03 03:50:51;;;;;;;80.60;36.47;;;;;;;;;;4953733;28;20475;-77
2023/03/03 03:53:17;;;;;;;85.73;32.10;;;;;;;;;;4953284;28;20453;-77
2023/03/03 03:55:44;;;;;;;81.45;31.40;;;;;;;;;;4967597;28;20454;-77
2023/03/03 03:58:16;;;;;;;100.27;35.47;;;;;;;;;;4969038;28;20196;-78
2023/03/03 04:00:42;;;;;;;100.03;35.07;;;;;;;;;;4964617;28;20659;-78
2023/03/03 04:03:09;;;;;;;90.37;31.57;;;;;;;;;;4950991;28;20448;-78
2023/03/03 04:05:35;;;;;;;82.93;33.20;;;;;;;;;;4969458;28;20521;-79
2023/03/03 04:08:01;;;;;;;94.70;37.67;;;;;;;;;;4949921;28;20468;-77
2023/03/03 04:10:27;;;;;;;86.80;35.20;;;;;;;;;;4969143;28;21227;-78
2023/03/03 04:12:53;;;;;;;66.80;29.10;;;;;;;;;;4971098;28;20442;-78
2023/03/03 04:15:20;;;;;;;62.70;28.10;;;;;;;;;;4950606;28;20456;-77
2023/03/03 04:17:46;;;;;;;54.33;25.33;;;;;;;;;;4967700;28;20849;-77
2023/03/03 04:20:16;;;;;;;63.40;23.70;;;;;;;;;;4968047;28;20436;-77
2023/03/03 04:22:43;;;;;;;61.03;25.50;;;;;;;;;;4964093;28;20431;-78
2023/03/03 04:25:12;;;;;;;49.27;22.63;;;;;;;;;;4948992;28;20539;-78
2023/03/03 04:27:38;;;;;;;63.40;22.77;;;;;;;;;;4969669;28;20468;-78
2023/03/03 04:30:05;;;;;;;45.67;18.80;;;;;;;;;;4966660;28;20552;-77
2023/03/03 04:32:35;;;;;;;48.87;19.90;;;;;;;;;;4969347;28;20436;-78
2023/03/03 04:35:01;;;;;;;41.70;18.93;;;;;;;;;;4966361;28;20475;-83
2023/03/03 04:37:27;;;;;;;43.80;20.27;;;;;;;;;;4975054;28;20445;-84
2023/03/03 04:39:53;;;;;;;50.90;22.77;;;;;;;;;;4967806;28;20456;-84
2023/03/03 04:42:19;;;;;;;51.37;21.77;;;;;;;;;;4978374;28;20443;-83
2023/03/03 04:44:45;;;;;;;46.50;22.13;;;;;;;;;;4978736;28;20455;-77
2023/03/03 04:47:11;;;;;;;41.53;16.20;;;;;;;;;;4973962;28;20858;-78
2023/03/03 04:49:37;;;;;;;55.70;24.73;;;;;;;;;;4977587;28;20489;-86
2023/03/03 04:52:03;;;;;;;46.93;18.40;;;;;;;;;;4976853;28;20493;-84
2023/03/03 04:54:29;;;;;;;47.73;21.07;;;;;;;;;;4971648;28;20452;-76
2023/03/03 04:56:55;;;;;;;50.85;22.38;;;;;;;;;;4975428;28;20523;-75
2023/03/03 04:59:21;;;;;;;35.03;16.20;;;;;;;;;;4970165;28;20209;-76
2023/03/03 05:01:49;;;;;;;45.00;24.10;;;;;;;;;;4974738;28;20961;-76
2023/03/03 05:04:15;;;;;;;52.00;21.43;;;;;;;;;;4970522;28;20441;-76
2023/03/03 05:06:42;;;;;;;51.03;23.40;;;;;;;;;;4970721;28;20447;-76
2023/03/03 05:09:08;;;;;;;40.43;19.60;;;;;;;;;;4966806;28;20457;-77
2023/03/03 05:11:34;;;;;;;43.93;20.70;;;;;;;;;;4965040;28;20476;-77
2023/03/03 05:14:01;;;;;;;52.83;20.47;;;;;;;;;;4970229;28;20463;-83
2023/03/03 05:16:27;;;;;;;47.17;21.13;;;;;;;;;;4976708;28;20432;-77
2023/03/03 05:18:53;;;;;;;46.03;21.10;;;;;;;;;;4961148;28;20466;-77
2023/03/03 05:21:19;;;;;;;39.40;20.67;;;;;;;;;;4977727;28;20444;-79
2023/03/03 05:23:45;;;;;;;43.50;21.27;;;;;;;;;;4966917;28;20492;-77
2023/03/03 05:26:12;;;;;;;44.83;19.00;;;;;;;;;;4970108;28;21123;-78
2023/03/03 05:28:38;;;;;;;39.28;17.48;;;;;;;;;;4968622;28;20494;-80
2023/03/03 05:31:04;;;;;;;38.87;17.97;;;;;;;;;;4970906;28;20195;-79
2023/03/03 05:33:30;;;;;;;45.43;18.73;;;;;;;;;;4969044;28;20553;-79
2023/03/03 05:35:56;;;;;;;29.93;17.20;;;;;;;;;;4978327;28;20416;-78
2023/03/03 05:38:23;;;;;;;28.73;13.75;;;;;;;;;;4974339;28;20438;-78
2023/03/03 05:40:49;;;;;;;27.53;14.40;;;;;;;;;;4979225;28;20190;-80
2023/03/03 05:43:15;;;;;;;35.80;15.63;;;;;;;;;;4969877;28;20467;-79
2023/03/03 05:45:41;;;;;;;35.17;19.70;;;;;;;;;;4976589;28;20424;-76
2023/03/03 05:48:09;;;;;;;37.77;17.90;;;;;;;;;;4967412;28;20476;-79
2023/03/03 05:50:35;;;;;;;39.30;18.73;;;;;;;;;;4973183;28;20421;-79
2023/03/03 05:53:01;;;;;;;45.57;18.97;;;;;;;;;;4966121;28;20449;-81
2023/03/03 05:55:27;;;;;;;42.73;20.13;;;;;;;;;;4970995;28;20524;-81
2023/03/03 05:57:54;;;;;;;40.37;19.43;;;;;;;;;;4966019;28;21085;-80
2023/03/03 06:00:20;;;;;;;41.63;17.90;;;;;;;;;;4969392;28;20660;-81
2023/03/03 06:02:46;;;;;;;33.90;14.07;;;;;;;;;;4960882;28;20991;-79
2023/03/03 06:05:15;;;;;;;48.70;19.90;;;;;;;;;;4966007;28;20941;-80
2023/03/03 06:07:41;;;;;;;38.70;17.57;;;;;;;;;;4960477;28;20958;-78
2023/03/03 06:10:07;;;;;;;38.43;19.03;;;;;;;;;;4965014;28;20429;-80
2023/03/03 06:12:33;;;;;;;41.10;19.63;;;;;;;;;;4960217;28;20500;-81
2023/03/03 06:14:59;;;;;;;40.73;17.33;;;;;;;;;;4953590;28;20474;-79
2023/03/03 06:17:25;;;;;;;50.97;20.27;;;;;;;;;;4940988;28;21608;-81
2023/03/03 06:19:51;;;;;;;46.30;18.67;;;;;;;;;;4947431;28;20451;-80
2023/03/03 06:22:17;;;;;;;44.17;19.33;;;;;;;;;;4956580;28;20441;-80
2023/03/03 06:24:43;;;;;;;46.03;20.70;;;;;;;;;;4960618;28;21162;-81
2023/03/03 06:27:09;;;;;;;44.13;16.57;;;;;;;;;;4957716;28;21027;-79
2023/03/03 06:29:35;;;;;;;39.43;17.87;;;;;;;;;;4960909;28;20473;-80
2023/03/03 06:32:01;;;;;;;40.83;19.27;;;;;;;;;;4966782;28;20551;-78
2023/03/03 06:34:27;;;;;;;37.63;18.27;;;;;;;;;;4956414;28;20564;-78
2023/03/03 06:36:53;;;;;;;38.50;18.70;;;;;;;;;;4936311;28;20882;-78
2023/03/03 06:39:19;;;;;;;46.40;19.43;;;;;;;;;;4930637;28;21247;-79
2023/03/03 06:41:45;;;;;;;45.07;19.87;;;;;;;;;;4931348;29;20442;-77
2023/03/03 06:44:12;;;;;;;42.83;19.23;;;;;;;;;;4918066;29;20951;-80
2023/03/03 06:46:37;;;;;;;40.27;16.27;;;;;;;;;;4931126;28;20278;-77
2023/03/03 06:49:03;;;;;;;39.40;19.17;;;;;;;;;;4929158;28;20557;-77
2023/03/03 06:51:34;;;;;;;50.13;21.30;;;;;;;;;;4920840;29;20457;-80
2023/03/03 06:54:11;;;;;;;42.53;17.60;;;;;;;;;;4929178;28;21067;-78
2023/03/03 06:56:38;;;;;;;44.43;21.13;;;;;;;;;;4929200;28;20427;-78
2023/03/03 06:59:12;;;;;;;50.73;21.67;;;;;;;;;;4930512;28;20773;-79
2023/03/03 07:01:38;;;;;;;35.67;17.57;;;;;;;;;;4932907;29;20960;-79
2023/03/03 07:04:13;;;;;;;60.47;24.30;;;;;;;;;;4928333;28;20587;-80
2023/03/03 07:06:39;;;;;;;55.00;21.27;;;;;;;;;;4929400;29;20419;-78
2023/03/03 07:09:08;;;;;;;66.73;22.40;;;;;;;;;;4927055;28;20492;-78
2023/03/03 07:11:38;;;;;;;51.17;20.67;;;;;;;;;;4930130;29;20453;-80
2023/03/03 07:14:09;;;;;;;57.73;21.10;;;;;;;;;;4928030;28;20489;-78
2023/03/03 07:16:35;;;;;;;54.27;22.23;;;;;;;;;;4932582;28;20478;-79
2023/03/03 07:19:02;;;;;;;53.40;24.33;;;;;;;;;;4928844;28;20474;-79
2023/03/03 07:21:35;;;;;;;58.57;24.17;;;;;;;;;;4931774;29;20537;-78
2023/03/03 07:24:13;;;;;;;63.87;23.67;;;;;;;;;;4925850;28;20494;-79
2023/03/03 07:26:39;;;;;;;57.00;23.80;;;;;;;;;;4931723;28;20422;-80
2023/03/03 07:29:23;;;;;;;56.00;23.53;;;;;;;;;;4907416;29;20444;-78
2023/03/03 07:31:50;;;;;;;66.07;25.47;;;;;;;;;;4929962;29;20434;-80
2023/03/03 07:34:22;;;;;;;50.83;21.17;;;;;;;;;;4937886;28;20530;-80
2023/03/03 07:36:49;;;;;;;59.30;24.70;;;;;;;;;;4948727;28;20894;-76
2023/03/03 07:39:15;;;;;;;46.97;21.10;;;;;;;;;;4946079;28;20462;-79
2023/03/03 07:41:42;;;;;;;54.87;24.97;;;;;;;;;;4949275;28;20477;-80
2023/03/03 07:44:33;;;;;;;53.20;24.63;;;;;;;;;;4949031;28;20549;-78
2023/03/03 07:47:07;;;;;;;52.90;23.23;;;;;;;;;;4952294;28;20182;-77
2023/03/03 07:49:37;;;;;;;50.60;20.77;;;;;;;;;;4945672;28;20536;-78
2023/03/03 07:52:19;;;;;;;49.73;21.63;;;;;;;;;;4948147;28;20446;-79
2023/03/03 07:54:46;;;;;;;57.07;23.53;;;;;;;;;;4948293;28;21010;-82
2023/03/03 07:57:12;;;;;;;57.37;23.53;;;;;;;;;;4951424;28;20459;-83
2023/03/03 07:59:41;;;;;;;52.30;20.40;;;;;;;;;;4944988;28;20465;-80
2023/03/03 08:02:18;;;;;;;51.00;20.03;;;;;;;;;;4949415;28;20512;-83
2023/03/03 08:04:49;;;;;;;52.60;25.63;;;;;;;;;;4944123;28;20528;-81
2023/03/03 08:07:19;;;;;;;45.93;21.83;;;;;;;;;;4949680;28;20431;-83
2023/03/03 08:09:49;;;;;;;47.90;23.00;;;;;;;;;;4945451;28;20936;-83
2023/03/03 08:12:18;;;;;;;55.20;22.43;;;;;;;;;;4952876;28;20443;-83
2023/03/03 08:14:44;;;;;;;48.60;23.67;;;;;;;;;;4947721;28;20565;-83
2023/03/03 08:17:16;;;;;;;48.97;23.03;;;;;;;;;;4937782;28;20469;-82
2023/03/03 08:19:42;;;;;;;57.30;25.97;;;;;;;;;;4949912;28;20472;-84
2023/03/03 08:22:11;;;;;;;46.70;22.90;;;;;;;;;;4955434;28;20804;-81
2023/03/03 08:24:37;;;;;;;58.27;22.47;;;;;;;;;;4934437;28;20837;-83
2023/03/03 08:27:03;;;;;;;57.30;22.20;;;;;;;;;;4950943;28;20428;-81
2023/03/03 08:29:29;;;;;;;55.20;23.43;;;;;;;;;;4955127;28;20431;-83
2023/03/03 08:31:55;;;;;;;58.63;23.37;;;;;;;;;;4965561;28;20419;-83
2023/03/03 08:34:21;;;;;;;70.20;26.60;;;;;;;;;;4963442;28;20479;-83
2023/03/03 08:36:48;;;;;;;54.00;24.07;;;;;;;;;;4965029;28;20441;-82
2023/03/03 08:39:14;;;;;;;64.33;25.40;;;;;;;;;;4963882;28;20816;-83
2023/03/03 08:41:42;;;;;;;55.80;24.63;;;;;;;;;;4965902;28;20441;-82
2023/03/03 08:44:08;;;;;;;52.83;24.67;;;;;;;;;;4966202;28;20957;-82
2023/03/03 08:46:34;;;;;;;47.00;22.50;;;;;;;;;;4952227;28;20441;-82
2023/03/03 08:49:00;;;;;;;58.87;23.77;;;;;;;;;;4962836;28;20536;-82
2023/03/03 08:51:27;;;;;;;56.67;24.27;;;;;;;;;;4964608;28;20475;-82
2023/03/03 08:53:53;;;;;;;49.63;21.87;;;;;;;;;;4946199;28;20518;-80
2023/03/03 08:56:19;;;;;;;54.07;23.50;;;;;;;;;;4966659;28;20408;-80
2023/03/03 08:58:46;;;;;;;51.80;18.97;;;;;;;;;;4958746;28;20412;-81
2023/03/03 09:01:15;;;;;;;53.10;22.40;;;;;;;;;;4941582;28;20986;-82
2023/03/03 09:03:41;;;;;;;67.67;23.60;;;;;;;;;;4965795;28;20507;-83
2023/03/03 09:06:07;;;;;;;43.40;19.37;;;;;;;;;;4962513;28;20818;-82
2023/03/03 09:08:33;;;;;;;41.15;16.77;;;;;;;;;;4966864;28;20512;-82
2023/03/03 09:10:59;;;;;;;40.10;19.70;;;;;;;;;;4964881;28;20194;-83
2023/03/03 09:13:28;;;;;;;49.13;19.30;;;;;;;;;;4970095;28;20419;-85
2023/03/03 09:15:56;;;;;;;47.40;21.97;;;;;;;;;;4962707;28;20441;-80
2023/03/03 09:18:34;;;;;;;52.30;22.40;;;;;;;;;;4950096;28;20965;-84
2023/03/03 09:21:04;;;;;;;48.43;20.30;;;;;;;;;;4964320;28;20441;-82
2023/03/03 09:23:57;;;;;;;42.57;18.57;;;;;;;;;;4962109;28;20490;-84
2023/03/03 09:26:41;;;;;;;49.40;22.37;;;;;;;;;;4959290;28;20448;-82
2023/03/03 09:29:07;;;;;;;44.10;21.20;;;;;;;;;;4967052;28;20447;-81
2023/03/03 09:31:37;;;;;;;45.13;19.63;;;;;;;;;;4960122;28;20422;-83
2023/03/03 09:34:12;;;;;;;44.50;20.10;;;;;;;;;;4962487;28;20498;-84
2023/03/03 09:36:38;;;;;;;36.50;17.87;;;;;;;;;;4961497;28;20458;-83
2023/03/03 09:39:24;;;;;;;35.37;17.20;;;;;;;;;;4965471;28;20642;-84
2023/03/03 09:42:09;;;;;;;44.07;18.20;;;;;;;;;;4966390;28;20446;-84
2023/03/03 09:44:44;;;;;;;45.53;18.03;;;;;;;;;;4962514;28;20412;-82
2023/03/03 09:47:25;;;;;;;47.10;20.87;;;;;;;;;;4967948;28;21079;-84
2023/03/03 09:50:11;;;;;;;45.03;20.43;;;;;;;;;;4954501;28;20453;-83
2023/03/03 09:52:45;;;;;;;42.20;19.83;;;;;;;;;;4965267;28;20796;-81
2023/03/03 09:55:35;;;;;;;40.60;20.03;;;;;;;;;;4959058;28;20842;-84
2023/03/03 09:58:20;;;;;;;40.63;19.00;;;;;;;;;;4960925;28;20418;-81
2023/03/03 10:00:46;;;;;;;33.00;15.80;;;;;;;;;;4964838;28;20487;-82
2023/03/03 10:03:35;;;;;;;45.93;19.30;;;;;;;;;;4963753;28;20445;-85
2023/03/03 10:06:04;;;;;;;50.83;22.90;;;;;;;;;;4936828;28;20429;-82
2023/03/03 10:08:35;;;;;;;44.87;19.50;;;;;;;;;;4964737;28;20572;-83
2023/03/03 10:11:04;;;;;;;43.80;18.90;;;;;;;;;;4963977;28;20454;-84
2023/03/03 10:13:48;;;;;;;44.97;21.33;;;;;;;;;;4963844;28;20651;-82
2023/03/03 10:16:17;;;;;;;42.57;17.03;;;;;;;;;;4954388;28;20752;-82
2023/03/03 10:18:55;;;;;;;40.63;18.37;;;;;;;;;;4963814;28;20835;-83
2023/03/03 10:21:24;;;;;;;43.20;19.43;;;;;;;;;;4965333;28;20463;-82
2023/03/03 10:24:02;;;;;;;37.63;17.83;;;;;;;;;;4953949;28;21008;-83
2023/03/03 10:26:28;;;;;;;36.20;15.43;;;;;;;;;;4965713;28;20768;-81
2023/03/03 10:29:02;;;;;;;33.60;18.00;;;;;;;;;;4966847;28;20469;-79
2023/03/03 10:31:47;;;;;;;33.93;18.53;;;;;;;;;;4963984;28;20793;-79
2023/03/03 10:34:24;;;;;;;30.73;16.63;;;;;;;;;;4963395;28;20929;-78
2023/03/03 10:36:56;;;;;;;43.33;19.80;;;;;;;;;;4964476;28;20769;-78
2023/03/03 10:39:25;;;;;;;42.30;19.13;;;;;;;;;;4957517;28;20448;-78
2023/03/03 10:42:09;;;;;;;45.07;20.33;;;;;;;;;;4941927;28;20445;-77
2023/03/03 10:44:56;;;;;;;38.73;19.73;;;;;;;;;;4955260;28;21079;-78
2023/03/03 10:47:45;;;;;;;42.20;18.50;;;;;;;;;;4945749;28;20526;-78
2023/03/03 10:50:30;;;;;;;36.67;16.47;;;;;;;;;;4943462;28;20600;-77
2023/03/03 10:52:56;;;;;;;36.90;18.57;;;;;;;;;;4949825;28;20436;-77
2023/03/03 10:55:35;;;;;;;43.30;18.17;;;;;;;;;;4948491;28;20452;-79
2023/03/03 10:58:20;;;;;;;45.77;19.43;;;;;;;;;;4951539;28;20503;-80
2023/03/03 11:01:05;;;;;;;47.67;21.27;;;;;;;;;;4943007;28;20510;-80
2023/03/03 11:03:35;;;;;;;38.20;18.47;;;;;;;;;;4956047;28;20416;-81
2023/03/03 11:06:04;;;;;;;40.20;19.30;;;;;;;;;;4944864;28;20435;-78
2023/03/03 11:08:43;;;;;;;38.30;18.80;;;;;;;;;;4940421;28;20441;-80
2023/03/03 11:11:15;;;;;;;36.90;19.53;;;;;;;;;;4950298;28;20413;-78
2023/03/03 11:13:47;;;;;;;32.27;16.40;;;;;;;;;;4958025;28;20425;-81
2023/03/03 11:16:33;;;;;;;47.47;19.17;;;;;;;;;;4942354;28;20718;-79
2023/03/03 11:19:03;;;;;;;39.03;17.70;;;;;;;;;;4951096;28;20607;-80
2023/03/03 11:21:38;;;;;;;34.20;16.97;;;;;;;;;;4948164;28;20429;-79
2023/03/03 11:24:04;;;;;;;41.60;16.70;;;;;;;;;;4949046;28;20448;-80
2023/03/03 11:26:48;;;;;;;39.80;19.90;;;;;;;;;;4944327;28;20404;-82
2023/03/03 11:29:15;;;;;;;38.67;19.23;;;;;;;;;;4947903;28;20594;-81
2023/03/03 11:31:47;;;;;;;35.27;18.27;;;;;;;;;;4945457;28;20405;-80
2023/03/03 11:34:25;;;;;;;40.53;17.30;;;;;;;;;;4954104;28;20440;-81
2023/03/03 11:36:57;;;;;;;36.60;19.17;;;;;;;;;;4966573;28;20998;-82
2023/03/03 11:39:25;;;;;;;34.47;17.37;;;;;;;;;;4951801;28;20888;-84
2023/03/03 11:41:57;;;;;;;35.40;16.83;;;;;;;;;;4943976;28;21037;-81
2023/03/03 11:44:29;;;;;;;36.37;16.03;;;;;;;;;;4930085;28;20644;-81
2023/03/03 11:47:05;;;;;;;34.70;16.47;;;;;;;;;;4952427;28;20590;-81
2023/03/03 11:49:48;;;;;;;38.03;17.57;;;;;;;;;;4960788;28;21006;-82
2023/03/03 11:52:34;;;;;;;42.33;17.97;;;;;;;;;;4961500;28;20425;-82
2023/03/03 11:55:19;;;;;;;33.07;16.40;;;;;;;;;;4954555;28;20396;-81
2023/03/03 11:57:50;;;;;;;40.97;20.00;;;;;;;;;;4962704;28;20443;-80
2023/03/03 12:00:19;;;;;;;38.40;18.30;;;;;;;;;;4963192;28;20461;-80
2023/03/03 12:02:57;;;;;;;36.50;18.80;;;;;;;;;;4965871;28;20691;-79
2023/03/03 12:05:42;;;;;;;38.67;17.77;;;;;;;;;;4962340;28;20449;-83
2023/03/03 12:08:17;;;;;;;40.97;19.30;;;;;;;;;;4948874;28;20447;-81
2023/03/03 12:10:58;;;;;;;39.73;17.80;;;;;;;;;;4961150;28;20441;-80
2023/03/03 12:13:24;;;;;;;38.03;18.10;;;;;;;;;;4948009;28;20442;-80
2023/03/03 12:16:09;;;;;;;36.17;17.33;;;;;;;;;;4962545;28;20460;-80
2023/03/03 12:18:43;;;;;;;27.73;14.70;;;;;;;;;;4964558;28;20703;-80
2023/03/03 12:21:15;;;;;;;40.03;16.33;;;;;;;;;;4953554;28;20437;-81
2023/03/03 12:23:44;;;;;;;29.63;15.70;;;;;;;;;;4956880;28;20511;-79
2023/03/03 12:26:12;;;;;;;32.80;16.67;;;;;;;;;;4956776;28;20807;-82
2023/03/03 12:28:41;;;;;;;41.23;19.93;;;;;;;;;;4954582;28;20970;-81
2023/03/03 12:31:13;;;;;;;36.80;17.63;;;;;;;;;;4951577;28;20425;-79
2023/03/03 12:33:52;;;;;;;34.37;16.30;;;;;;;;;;4950314;28;20560;-80
2023/03/03 12:36:27;;;;;;;35.83;16.87;;;;;;;;;;4934252;28;20463;-79
2023/03/03 12:39:08;;;;;;;41.50;18.20;;;;;;;;;;4946803;28;20521;-79
2023/03/03 12:41:37;;;;;;;43.20;19.73;;;;;;;;;;4948024;28;20531;-80
2023/03/03 12:44:22;;;;;;;40.53;18.73;;;;;;;;;;4951909;28;20436;-80
2023/03/03 12:47:00;;;;;;;28.50;15.00;;;;;;;;;;4953489;28;20417;-81
2023/03/03 12:49:34;;;;;;;37.00;17.10;;;;;;;;;;4962406;28;20655;-79
2023/03/03 12:52:00;;;;;;;38.30;17.07;;;;;;;;;;4965079;28;20555;-80
2023/03/03 12:54:49;;;;;;;32.70;18.80;;;;;;;;;;4958505;28;20524;-84
2023/03/03 12:57:24;;;;;;;29.57;15.03;;;;;;;;;;4964780;28;20422;-81
2023/03/03 13:00:20;;;;;;;35.53;17.67;;;;;;;;;;4962046;28;21001;-81
2023/03/03 13:03:01;;;;;;;44.53;19.33;;;;;;;;;;4931212;28;20829;-82
2023/03/03 13:05:34;;;;;;;41.27;20.37;;;;;;;;;;4947962;28;20536;-80
2023/03/03 13:08:19;;;;;;;38.60;20.43;;;;;;;;;;4951504;28;20941;-79
2023/03/03 13:10:48;;;;;;;44.17;20.20;;;;;;;;;;4951536;28;20804;-83
2023/03/03 13:13:13;;;;;;;32.60;14.63;;;;;;;;;;4947440;28;20900;-80
2023/03/03 13:15:42;;;;;;;38.93;18.30;;;;;;;;;;4960961;28;20462;-80
2023/03/03 13:18:08;;;;;;;34.17;18.23;;;;;;;;;;4949800;28;20450;-78
2023/03/03 13:20:43;;;;;;;33.27;16.60;;;;;;;;;;4965905;28;20556;-80
2023/03/03 13:23:12;;;;;;;33.63;15.00;;;;;;;;;;4960323;28;20439;-80
2023/03/03 13:25:49;;;;;;;40.67;18.23;;;;;;;;;;4960062;28;20969;-79
2023/03/03 13:28:15;;;;;;;35.43;17.10;;;;;;;;;;4963625;28;20439;-79
2023/03/03 13:30:46;;;;;;;37.77;17.83;;;;;;;;;;4962697;28;20441;-81
2023/03/03 13:33:12;;;;;;;34.50;17.07;;;;;;;;;;4967577;28;20532;-81
2023/03/03 13:35:46;;;;;;;35.70;16.83;;;;;;;;;;4945835;28;20489;-80
2023/03/03 13:38:18;;;;;;;30.70;15.17;;;;;;;;;;4954831;28;20475;-80
2023/03/03 13:40:47;;;;;;;29.93;16.90;;;;;;;;;;4956659;28;20448;-84
2023/03/03 13:43:23;;;;;;;34.23;17.90;;;;;;;;;;4965866;28;20521;-81
2023/03/03 13:45:56;;;;;;;34.03;17.43;;;;;;;;;;4958082;28;20491;-80
2023/03/03 13:48:25;;;;;;;32.63;18.40;;;;;;;;;;4964950;28;20480;-79
2023/03/03 13:50:56;;;;;;;33.57;19.60;;;;;;;;;;4956107;28;20778;-82
2023/03/03 13:53:28;;;;;;;32.73;17.90;;;;;;;;;;4967679;28;20811;-82
2023/03/03 13:55:59;;;;;;;29.50;16.40;;;;;;;;;;4956128;28;20517;-80
2023/03/03 13:58:33;;;;;;;35.90;17.13;;;;;;;;;;4962549;28;20428;-79
2023/03/03 14:01:05;;;;;;;30.20;17.30;;;;;;;;;;4963508;28;20512;-79
2023/03/03 14:03:48;;;;;;;32.47;18.40;;;;;;;;;;4960535;28;20807;-79
2023/03/03 14:06:19;;;;;;;33.33;19.13;;;;;;;;;;4956894;28;20428;-81
2023/03/03 14:08:52;;;;;;;31.03;17.87;;;;;;;;;;4946843;28;20470;-79
2023/03/03 14:11:29;;;;;;;36.27;19.80;;;;;;;;;;4954849;28;20441;-79
2023/03/03 14:14:02;;;;;;;30.73;17.40;;;;;;;;;;4964012;28;20898;-80
2023/03/03 14:16:43;;;;;;;32.90;18.50;;;;;;;;;;4958002;28;20437;-80
2023/03/03 14:19:39;;;;;;;31.40;17.20;;;;;;;;;;4966370;28;20420;-80
2023/03/03 14:22:24;;;;;;;30.97;18.50;;;;;;;;;;4925791;28;20965;-79
2023/03/03 14:24:56;;;;;;;31.13;17.67;;;;;;;;;;4965537;28;20425;-82
2023/03/03 14:27:26;;;;;;;30.77;16.80;;;;;;;;;;4943076;28;20472;-81
2023/03/03 14:29:52;;;;;;;31.77;18.23;;;;;;;;;;4962502;28;20426;-81
2023/03/03 14:32:24;;;;;;;27.40;18.03;;;;;;;;;;4962567;28;21206;-79
2023/03/03 14:34:58;;;;;;;27.70;17.90;;;;;;;;;;4958465;28;20531;-81